Flight Track Log - Related Links

Times and Time Zones

All times are in EDT time to prevent confusion due to time zone crossing. See the N570R flight status page for this flight to view local times or setup timezone preferences in your user account.

Time Position Orientation Groundspeed Altitude Reporting Facility
EDT Latitude Longitude Course Direction KTS MPH feet Rate Location/Type
Tue 10:02:22 AM 26.5325 -77.8450 273° West 362 417 16,500  Level Miami Center
Tue 10:03:24 AM 26.5375 -77.9600 273° West 367 422 17,100 919 Climbing Miami Center
Tue 10:04:26 AM 26.5711 -78.0736 288° West 355 409 18,400 1,366 Climbing Miami Center
Tue 10:05:27 AM 26.5953 -78.1839 284° West 361 415 19,900 1,415 Climbing Miami Center
Tue 10:06:29 AM 26.6225 -78.2947 285° West 365 420 21,300 1,016 Climbing Miami Center
Tue 10:07:31 AM 26.6481 -78.4086 284° West 373 429 22,000 341 Climbing Miami Center
Tue 10:08:32 AM 26.6806 -78.5431 285° West 398 458 22,000  Level Miami Center
Tue 10:09:35 AM 26.7053 -78.6678 283° West 405 466 22,000  Level Miami Center
Tue 10:10:36 AM 26.7347 -78.7822 286° West 391 450 22,000  Level Miami Center
Tue 10:11:38 AM 26.7606 -78.8986 284° West 389 448 22,000  Level Miami Center
Tue 10:12:40 AM 26.7872 -79.0142 285° West 386 444 22,000  Level Miami Center
Tue 10:13:41 AM 26.8131 -79.1292 284° West 385 443 22,000  Level Miami Center
Tue 10:14:43 AM 26.8392 -79.2428 284° West 383 441 22,000  Level Miami Center
Tue 10:15:45 AM 26.8669 -79.3806 283° West 383 441 22,000  Level Miami Center
Tue 10:16:47 AM 26.8586 -79.4989 266° West 379 436 22,000  Level Miami Center
Tue 10:17:49 AM 26.8497 -79.6183 265° West 381 438 22,000  Level Miami Center
Tue 10:18:51 AM 26.8397 -79.7367 265° West 383 441 22,000  Level Miami Center
Tue 10:20:00 AM 26.8542 -79.8775 287° West  Level FlightAware Approximate
Tue 10:20:54 AM 26.8692 -79.9658 287° West 380 437 22,000  Level Miami Center
Tue 10:21:56 AM 26.9017 -80.0800 288° West 381 438 22,000  Level Miami Center
Tue 10:22:58 AM 26.9392 -80.2161 287° West 381 438 22,000  Level Miami Center
Tue 10:24:00 AM 26.9711 -80.3292 288° West 381 438 22,000  Level Miami Center
Tue 10:25:01 AM 27.0019 -80.4425 287° West 381 438 22,000  Level Miami Center
Tue 10:26:03 AM 27.0333 -80.5556 287° West 381 438 22,000  Level Miami Center
Tue 10:27:05 AM 27.0653 -80.6708 287° West 381 438 22,000  Level Miami Center
Tue 10:28:07 AM 27.0956 -80.7844 287° West 381 438 22,000  Level Miami Center
Tue 10:29:08 AM 27.1264 -80.8972 287° West 380 437 22,000  Level Miami Center
Tue 10:30:10 AM 27.1622 -81.0319 287° West 379 436 22,000  Level Miami Center
Tue 10:31:12 AM 27.1919 -81.1414 287° West 380 437 22,000 -48 Level Miami Center
Tue 10:32:14 AM 27.2214 -81.2553 286° West 380 437 21,900 -585 Descending Miami Center
Tue 10:33:15 AM 27.2522 -81.3736 286° West 391 450 20,800 -976 Descending Miami Center
Tue 10:34:17 AM 27.2575 -81.5006 273° West 403 464 19,900 -871 Descending Miami Center
Tue 10:35:19 AM 27.2667 -81.6267 275° West 410 472 19,000 -919 Descending Miami Center
Tue 10:36:21 AM 27.3244 -81.7644 295° West 409 471 18,000 -488 Descending Miami Center
Tue 10:37:22 AM 27.3597 -81.8661 291° West 351 404 18,000 -1,171 Level Miami Center
Tue 10:38:24 AM 27.3950 -81.9667 292° West 340 391 15,600 -2,613 Descending Miami Center
Tue 10:39:26 AM 27.4311 -82.0692 292° West 344 396 12,600 -2,226 Descending Miami Center
Tue 10:40:28 AM 27.4742 -82.1628 297° West 338 389 11,000 -1,073 Descending Miami Center
Tue 10:41:29 AM 27.5219 -82.2489 302° West 327 376 10,400 -927 Descending Miami Center
Tue 10:42:31 AM 27.5589 -82.3331 296° West 303 349 9,100 -1,403 Descending Miami Center
Tue 10:43:33 AM 27.5967 -82.4122 298° West 291 335 7,500 -1,949 Descending Miami Center
Tue 10:44:28 AM 27.6333 -82.5000 295° West 285 328 5,300 -1,842 Descending Tampa TRACON
Tue 10:45:27 AM 27.6667 -82.5833 294° West 275 316 4,000 -655 Descending Tampa TRACON
Tue 10:46:27 AM 27.7167 -82.6333 318° Northwest 254 292 4,000  Level Tampa TRACON
Tue 10:47:22 AM 27.7667 -82.6833 319° Northwest 251 289 4,000  Level Tampa TRACON
Tue 10:48:22 AM 27.8167 -82.7167 329° Northwest 246 283 4,000 -50 Level Tampa TRACON
Tue 10:49:22 AM 27.8833 -82.7500 336° Northwest 244 281 3,900 -850 Descending Tampa TRACON
Tue 10:50:22 AM 27.9500 -82.7500 360° North 237 273 2,300 -1,100 Descending Tampa TRACON
Tue 10:51:22 AM 27.9833 -82.7167 41° Northeast 199 229 1,700 -750 Descending Tampa TRACON
Tue 10:52:22 AM 27.9667 -82.7000 139° Southeast 111 128 800 -750 Descending Tampa TRACON
Tue 10:53:22 AM 27.9333 -82.7000 180° South 108 124 200 -600 Descending Tampa TRACON
Tue 10:55:00 AM 27.9100 -82.6875 North  Level Estimated
Tue 11:02:00 AM 27.9100 -82.6875 North  Level Estimated

Login

Don't have an account? Register now (free) for customized features, flight alerts, and more!